sensor_id;sensor_type;location;lat;lon;timestamp;P1;durP1;ratioP1;P2;durP2;ratioP2
69414;SDS011;56608;43.530;-5.652;2023-02-01T00:00:45;7.82;;;4.55;;
69414;SDS011;56608;43.530;-5.652;2023-02-01T00:01:47;6.80;;;4.60;;
69414;SDS011;56608;43.530;-5.652;2023-02-01T00:02:48;6.87;;;5.05;;
69414;SDS011;56608;43.530;-5.652;2023-02-01T00:03:49;7.50;;;4.85;;
69414;SDS011;56608;43.530;-5.652;2023-02-01T00:04:51;9.10;;;5.00;;
69414;SDS011;56608;43.530;-5.652;2023-02-01T00:05:56;9.40;;;4.68;;
69414;SDS011;56608;43.530;-5.652;2023-02-01T00:06:58;6.47;;;4.45;;
69414;SDS011;56608;43.530;-5.652;2023-02-01T00:07:59;7.32;;;4.53;;
69414;SDS011;56608;43.530;-5.652;2023-02-01T00:09:01;9.23;;;5.25;;
69414;SDS011;56608;43.530;-5.652;2023-02-01T00:11:05;8.75;;;5.10;;
69414;SDS011;56608;43.530;-5.652;2023-02-01T00:12:08;12.80;;;6.10;;
69414;SDS011;56608;43.530;-5.652;2023-02-01T00:13:09;10.60;;;6.07;;
69414;SDS011;56608;43.530;-5.652;2023-02-01T00:14:11;11.23;;;6.35;;
69414;SDS011;56608;43.530;-5.652;2023-02-01T00:15:13;10.13;;;6.20;;
69414;SDS011;56608;43.530;-5.652;2023-02-01T00:17:17;10.65;;;5.78;;
69414;SDS011;56608;43.530;-5.652;2023-02-01T00:18:18;10.15;;;5.93;;
69414;SDS011;56608;43.530;-5.652;2023-02-01T00:19:19;9.43;;;5.60;;
69414;SDS011;56608;43.530;-5.652;2023-02-01T00:20:21;10.85;;;5.20;;
69414;SDS011;56608;43.530;-5.652;2023-02-01T00:21:22;9.67;;;5.70;;
69414;SDS011;56608;43.530;-5.652;2023-02-01T00:22:23;10.07;;;5.43;;
69414;SDS011;56608;43.530;-5.652;2023-02-01T00:23:25;9.68;;;5.28;;
69414;SDS011;56608;43.530;-5.652;2023-02-01T00:24:26;8.50;;;5.68;;
69414;SDS011;56608;43.530;-5.652;2023-02-01T00:25:28;8.95;;;5.50;;
69414;SDS011;56608;43.530;-5.652;2023-02-01T00:27:37;8.55;;;5.93;;
69414;SDS011;56608;43.530;-5.652;2023-02-01T00:28:39;9.93;;;6.12;;
69414;SDS011;56608;43.530;-5.652;2023-02-01T00:29:40;11.15;;;6.30;;
69414;SDS011;56608;43.530;-5.652;2023-02-01T00:30:42;12.20;;;6.03;;
69414;SDS011;56608;43.530;-5.652;2023-02-01T00:31:43;10.15;;;6.10;;
69414;SDS011;56608;43.530;-5.652;2023-02-01T00:32:45;9.15;;;5.95;;
69414;SDS011;56608;43.530;-5.652;2023-02-01T00:33:47;16.45;;;6.55;;
69414;SDS011;56608;43.530;-5.652;2023-02-01T00:34:49;11.60;;;5.75;;
69414;SDS011;56608;43.530;-5.652;2023-02-01T00:35:51;10.85;;;5.90;;
69414;SDS011;56608;43.530;-5.652;2023-02-01T00:36:56;9.63;;;5.65;;
69414;SDS011;56608;43.530;-5.652;2023-02-01T00:37:58;9.43;;;5.25;;
69414;SDS011;56608;43.530;-5.652;2023-02-01T00:39:00;8.75;;;5.32;;
69414;SDS011;56608;43.530;-5.652;2023-02-01T00:40:01;10.10;;;6.00;;
69414;SDS011;56608;43.530;-5.652;2023-02-01T00:41:04;9.55;;;5.60;;
69414;SDS011;56608;43.530;-5.652;2023-02-01T00:42:07;8.45;;;5.18;;
69414;SDS011;56608;43.530;-5.652;2023-02-01T00:43:08;11.27;;;5.85;;
69414;SDS011;56608;43.530;-5.652;2023-02-01T00:44:09;9.07;;;5.00;;
69414;SDS011;56608;43.530;-5.652;2023-02-01T00:45:11;8.68;;;5.12;;
69414;SDS011;56608;43.530;-5.652;2023-02-01T00:46:13;8.73;;;5.18;;
69414;SDS011;56608;43.530;-5.652;2023-02-01T00:47:15;7.97;;;4.65;;
69414;SDS011;56608;43.530;-5.652;2023-02-01T00:48:17;8.10;;;5.45;;
69414;SDS011;56608;43.530;-5.652;2023-02-01T00:49:18;8.57;;;5.20;;
69414;SDS011;56608;43.530;-5.652;2023-02-01T00:50:19;9.53;;;5.30;;
69414;SDS011;56608;43.530;-5.652;2023-02-01T00:51:22;8.73;;;4.97;;
69414;SDS011;56608;43.530;-5.652;2023-02-01T00:52:26;9.23;;;5.50;;
69414;SDS011;56608;43.530;-5.652;2023-02-01T00:53:27;9.73;;;4.87;;
69414;SDS011;56608;43.530;-5.652;2023-02-01T00:54:29;8.05;;;4.90;;
69414;SDS011;56608;43.530;-5.652;2023-02-01T00:55:30;9.05;;;5.30;;
69414;SDS011;56608;43.530;-5.652;2023-02-01T00:56:32;9.45;;;5.70;;
69414;SDS011;56608;43.530;-5.652;2023-02-01T00:57:33;8.43;;;5.60;;
69414;SDS011;56608;43.530;-5.652;2023-02-01T00:58:35;9.68;;;5.53;;
69414;SDS011;56608;43.530;-5.652;2023-02-01T00:59:36;9.15;;;5.40;;
69414;SDS011;56608;43.530;-5.652;2023-02-01T01:00:37;10.88;;;5.50;;
69414;SDS011;56608;43.530;-5.652;2023-02-01T01:01:39;8.95;;;5.45;;
69414;SDS011;56608;43.530;-5.652;2023-02-01T01:02:41;9.70;;;5.00;;
69414;SDS011;56608;43.530;-5.652;2023-02-01T01:03:47;9.43;;;5.47;;
69414;SDS011;56608;43.530;-5.652;2023-02-01T01:04:53;8.40;;;5.07;;
69414;SDS011;56608;43.530;-5.652;2023-02-01T01:05:56;10.50;;;4.90;;
69414;SDS011;56608;43.530;-5.652;2023-02-01T01:06:58;10.23;;;5.55;;
69414;SDS011;56608;43.530;-5.652;2023-02-01T01:07:59;8.80;;;5.55;;
69414;SDS011;56608;43.530;-5.652;2023-02-01T01:09:02;12.15;;;5.65;;
69414;SDS011;56608;43.530;-5.652;2023-02-01T01:10:05;9.68;;;5.82;;
69414;SDS011;56608;43.530;-5.652;2023-02-01T01:12:08;11.15;;;5.20;;
69414;SDS011;56608;43.530;-5.652;2023-02-01T01:13:10;10.00;;;5.80;;
69414;SDS011;56608;43.530;-5.652;2023-02-01T01:14:12;12.82;;;6.32;;
69414;SDS011;56608;43.530;-5.652;2023-02-01T01:15:13;11.32;;;5.97;;
69414;SDS011;56608;43.530;-5.652;2023-02-01T01:16:15;10.40;;;6.47;;
69414;SDS011;56608;43.530;-5.652;2023-02-01T01:17:17;10.75;;;5.80;;
69414;SDS011;56608;43.530;-5.652;2023-02-01T01:18:18;9.90;;;5.80;;
69414;SDS011;56608;43.530;-5.652;2023-02-01T01:19:19;10.35;;;5.78;;
69414;SDS011;56608;43.530;-5.652;2023-02-01T01:20:21;9.13;;;5.35;;
69414;SDS011;56608;43.530;-5.652;2023-02-01T01:21:22;14.40;;;5.93;;
69414;SDS011;56608;43.530;-5.652;2023-02-01T01:23:25;11.52;;;5.70;;
69414;SDS011;56608;43.530;-5.652;2023-02-01T01:24:27;10.60;;;6.00;;
69414;SDS011;56608;43.530;-5.652;2023-02-01T01:25:28;11.00;;;6.00;;
69414;SDS011;56608;43.530;-5.652;2023-02-01T01:26:30;10.05;;;6.10;;
69414;SDS011;56608;43.530;-5.652;2023-02-01T01:27:31;10.20;;;6.20;;
69414;SDS011;56608;43.530;-5.652;2023-02-01T01:28:33;10.93;;;5.55;;
69414;SDS011;56608;43.530;-5.652;2023-02-01T01:29:34;8.25;;;5.45;;
69414;SDS011;56608;43.530;-5.652;2023-02-01T01:30:36;9.50;;;5.75;;
69414;SDS011;56608;43.530;-5.652;2023-02-01T01:31:37;10.32;;;5.80;;
69414;SDS011;56608;43.530;-5.652;2023-02-01T01:32:39;9.05;;;5.40;;
69414;SDS011;56608;43.530;-5.652;2023-02-01T01:33:40;11.05;;;5.75;;
69414;SDS011;56608;43.530;-5.652;2023-02-01T01:34:42;11.12;;;5.75;;
69414;SDS011;56608;43.530;-5.652;2023-02-01T01:35:43;11.55;;;6.30;;
69414;SDS011;56608;43.530;-5.652;2023-02-01T01:36:44;13.07;;;6.00;;
69414;SDS011;56608;43.530;-5.652;2023-02-01T01:37:45;9.30;;;5.50;;
69414;SDS011;56608;43.530;-5.652;2023-02-01T01:38:47;9.32;;;5.65;;
69414;SDS011;56608;43.530;-5.652;2023-02-01T01:40:48;10.20;;;5.90;;
69414;SDS011;56608;43.530;-5.652;2023-02-01T01:41:52;8.80;;;5.05;;
69414;SDS011;56608;43.530;-5.652;2023-02-01T01:42:54;8.40;;;5.43;;
69414;SDS011;56608;43.530;-5.652;2023-02-01T01:43:57;9.35;;;5.32;;
69414;SDS011;56608;43.530;-5.652;2023-02-01T01:45:03;9.88;;;5.65;;
69414;SDS011;56608;43.530;-5.652;2023-02-01T01:46:08;11.52;;;6.05;;
69414;SDS011;56608;43.530;-5.652;2023-02-01T01:47:09;8.48;;;5.05;;
69414;SDS011;56608;43.530;-5.652;2023-02-01T01:48:13;11.60;;;5.50;;
69414;SDS011;56608;43.530;-5.652;2023-02-01T01:49:30;8.63;;;5.20;;
69414;SDS011;56608;43.530;-5.652;2023-02-01T01:50:31;10.47;;;5.47;;
69414;SDS011;56608;43.530;-5.652;2023-02-01T01:52:53;10.23;;;5.30;;
69414;SDS011;56608;43.530;-5.652;2023-02-01T01:54:07;9.27;;;5.00;;
69414;SDS011;56608;43.530;-5.652;2023-02-01T01:55:09;7.82;;;5.12;;
69414;SDS011;56608;43.530;-5.652;2023-02-01T01:56:11;6.72;;;5.12;;
69414;SDS011;56608;43.530;-5.652;2023-02-01T01:57:17;9.90;;;5.62;;
69414;SDS011;56608;43.530;-5.652;2023-02-01T01:58:27;8.73;;;5.32;;
69414;SDS011;56608;43.530;-5.652;2023-02-01T01:59:32;9.00;;;4.80;;
69414;SDS011;56608;43.530;-5.652;2023-02-01T02:00:37;11.02;;;4.82;;
69414;SDS011;56608;43.530;-5.652;2023-02-01T02:01:39;8.18;;;5.12;;
69414;SDS011;56608;43.530;-5.652;2023-02-01T02:02:41;10.50;;;5.50;;
69414;SDS011;56608;43.530;-5.652;2023-02-01T02:03:44;7.72;;;5.12;;
69414;SDS011;56608;43.530;-5.652;2023-02-01T02:04:46;9.02;;;5.40;;
69414;SDS011;56608;43.530;-5.652;2023-02-01T02:05:49;8.40;;;5.10;;
69414;SDS011;56608;43.530;-5.652;2023-02-01T02:06:56;9.13;;;5.12;;
69414;SDS011;56608;43.530;-5.652;2023-02-01T02:08:02;10.30;;;5.40;;
69414;SDS011;56608;43.530;-5.652;2023-02-01T02:09:04;9.90;;;5.30;;
69414;SDS011;56608;43.530;-5.652;2023-02-01T02:11:07;12.60;;;5.07;;
69414;SDS011;56608;43.530;-5.652;2023-02-01T02:12:10;7.72;;;4.75;;
69414;SDS011;56608;43.530;-5.652;2023-02-01T02:13:10;8.73;;;4.80;;
69414;SDS011;56608;43.530;-5.652;2023-02-01T02:14:13;10.20;;;5.50;;
69414;SDS011;56608;43.530;-5.652;2023-02-01T02:15:18;7.93;;;4.90;;
69414;SDS011;56608;43.530;-5.652;2023-02-01T02:17:30;9.23;;;5.35;;
69414;SDS011;56608;43.530;-5.652;2023-02-01T02:19:01;9.63;;;5.72;;
69414;SDS011;56608;43.530;-5.652;2023-02-01T02:30:22;11.45;;;4.55;;
69414;SDS011;56608;43.530;-5.652;2023-02-01T02:34:40;7.75;;;4.85;;
69414;SDS011;56608;43.530;-5.652;2023-02-01T02:37:23;7.85;;;4.47;;
69414;SDS011;56608;43.530;-5.652;2023-02-01T02:38:56;7.95;;;4.72;;
69414;SDS011;56608;43.530;-5.652;2023-02-01T02:43:34;7.80;;;4.70;;
69414;SDS011;56608;43.530;-5.652;2023-02-01T02:46:24;7.47;;;4.35;;
69414;SDS011;56608;43.530;-5.652;2023-02-01T02:47:54;6.97;;;3.97;;
69414;SDS011;56608;43.530;-5.652;2023-02-01T02:49:05;7.93;;;4.30;;
69414;SDS011;56608;43.530;-5.652;2023-02-01T02:50:15;10.38;;;4.18;;
69414;SDS011;56608;43.530;-5.652;2023-02-01T02:52:09;7.90;;;4.60;;
69414;SDS011;56608;43.530;-5.652;2023-02-01T02:53:48;9.13;;;4.25;;
69414;SDS011;56608;43.530;-5.652;2023-02-01T02:55:16;8.10;;;4.05;;
69414;SDS011;56608;43.530;-5.652;2023-02-01T02:56:18;9.35;;;4.45;;
69414;SDS011;56608;43.530;-5.652;2023-02-01T02:57:41;7.12;;;4.20;;
69414;SDS011;56608;43.530;-5.652;2023-02-01T02:59:03;6.95;;;4.07;;
69414;SDS011;56608;43.530;-5.652;2023-02-01T03:00:30;8.43;;;4.37;;
69414;SDS011;56608;43.530;-5.652;2023-02-01T03:01:53;6.60;;;3.97;;
69414;SDS011;56608;43.530;-5.652;2023-02-01T03:03:13;7.45;;;4.03;;
69414;SDS011;56608;43.530;-5.652;2023-02-01T03:04:33;8.20;;;4.80;;
69414;SDS011;56608;43.530;-5.652;2023-02-01T03:05:35;8.90;;;4.80;;
69414;SDS011;56608;43.530;-5.652;2023-02-01T03:06:38;9.23;;;4.70;;
69414;SDS011;56608;43.530;-5.652;2023-02-01T03:07:56;9.00;;;4.20;;
69414;SDS011;56608;43.530;-5.652;2023-02-01T03:09:04;8.77;;;4.50;;
69414;SDS011;56608;43.530;-5.652;2023-02-01T03:11:21;9.48;;;4.70;;
69414;SDS011;56608;43.530;-5.652;2023-02-01T03:12:22;8.00;;;4.75;;
69414;SDS011;56608;43.530;-5.652;2023-02-01T03:14:57;7.70;;;4.37;;
69414;SDS011;56608;43.530;-5.652;2023-02-01T03:17:18;6.55;;;4.12;;
69414;SDS011;56608;43.530;-5.652;2023-02-01T03:19:39;7.00;;;4.43;;
69414;SDS011;56608;43.530;-5.652;2023-02-01T03:20:49;8.02;;;4.35;;
69414;SDS011;56608;43.530;-5.652;2023-02-01T03:21:53;7.40;;;3.95;;
69414;SDS011;56608;43.530;-5.652;2023-02-01T03:22:58;7.90;;;3.97;;
69414;SDS011;56608;43.530;-5.652;2023-02-01T03:25:10;6.32;;;3.85;;
69414;SDS011;56608;43.530;-5.652;2023-02-01T03:26:19;7.18;;;4.05;;
69414;SDS011;56608;43.530;-5.652;2023-02-01T03:27:32;6.78;;;4.03;;
69414;SDS011;56608;43.530;-5.652;2023-02-01T03:28:39;6.18;;;4.10;;
69414;SDS011;56608;43.530;-5.652;2023-02-01T03:30:32;7.53;;;4.20;;
69414;SDS011;56608;43.530;-5.652;2023-02-01T03:31:23;7.78;;;4.03;;
69414;SDS011;56608;43.530;-5.652;2023-02-01T03:32:25;7.57;;;3.78;;
69414;SDS011;56608;43.530;-5.652;2023-02-01T03:33:26;6.32;;;3.90;;
69414;SDS011;56608;43.530;-5.652;2023-02-01T03:34:31;7.25;;;3.92;;
69414;SDS011;56608;43.530;-5.652;2023-02-01T03:35:39;6.65;;;4.00;;
69414;SDS011;56608;43.530;-5.652;2023-02-01T03:36:58;7.22;;;3.92;;
69414;SDS011;56608;43.530;-5.652;2023-02-01T03:38:37;6.18;;;4.03;;
69414;SDS011;56608;43.530;-5.652;2023-02-01T03:39:43;8.35;;;3.95;;
69414;SDS011;56608;43.530;-5.652;2023-02-01T03:40:52;6.72;;;3.87;;
69414;SDS011;56608;43.530;-5.652;2023-02-01T03:42:03;6.60;;;3.80;;
69414;SDS011;56608;43.530;-5.652;2023-02-01T03:43:10;6.90;;;3.72;;
69414;SDS011;56608;43.530;-5.652;2023-02-01T03:46:38;7.65;;;3.67;;
69414;SDS011;56608;43.530;-5.652;2023-02-01T03:48:04;5.65;;;3.70;;
69414;SDS011;56608;43.530;-5.652;2023-02-01T03:49:07;7.93;;;3.65;;
69414;SDS011;56608;43.530;-5.652;2023-02-01T03:50:21;6.20;;;3.42;;
69414;SDS011;56608;43.530;-5.652;2023-02-01T03:51:26;5.35;;;3.10;;
69414;SDS011;56608;43.530;-5.652;2023-02-01T03:52:32;5.85;;;3.95;;
69414;SDS011;56608;43.530;-5.652;2023-02-01T03:53:39;7.43;;;3.83;;
69414;SDS011;56608;43.530;-5.652;2023-02-01T03:54:42;8.73;;;3.90;;
69414;SDS011;56608;43.530;-5.652;2023-02-01T03:55:44;6.45;;;3.53;;
69414;SDS011;56608;43.530;-5.652;2023-02-01T03:56:47;5.45;;;3.60;;
69414;SDS011;56608;43.530;-5.652;2023-02-01T03:58:09;8.43;;;3.85;;
69414;SDS011;56608;43.530;-5.652;2023-02-01T03:59:14;5.97;;;3.55;;
69414;SDS011;56608;43.530;-5.652;2023-02-01T04:00:18;6.03;;;3.83;;
69414;SDS011;56608;43.530;-5.652;2023-02-01T04:01:22;6.07;;;3.30;;
69414;SDS011;56608;43.530;-5.652;2023-02-01T04:02:23;6.05;;;3.60;;
69414;SDS011;56608;43.530;-5.652;2023-02-01T04:03:25;5.50;;;3.33;;
69414;SDS011;56608;43.530;-5.652;2023-02-01T04:04:28;5.75;;;3.67;;
69414;SDS011;56608;43.530;-5.652;2023-02-01T04:05:29;5.85;;;3.42;;
69414;SDS011;56608;43.530;-5.652;2023-02-01T04:06:31;6.22;;;4.03;;
69414;SDS011;56608;43.530;-5.652;2023-02-01T04:07:32;6.57;;;3.58;;
69414;SDS011;56608;43.530;-5.652;2023-02-01T04:08:34;6.93;;;3.70;;
69414;SDS011;56608;43.530;-5.652;2023-02-01T04:09:35;6.50;;;3.47;;
69414;SDS011;56608;43.530;-5.652;2023-02-01T04:10:36;8.00;;;4.77;;
69414;SDS011;56608;43.530;-5.652;2023-02-01T04:11:37;7.75;;;3.90;;
69414;SDS011;56608;43.530;-5.652;2023-02-01T04:12:39;7.30;;;3.65;;
69414;SDS011;56608;43.530;-5.652;2023-02-01T04:13:41;6.03;;;4.05;;
69414;SDS011;56608;43.530;-5.652;2023-02-01T04:14:42;6.50;;;3.60;;
69414;SDS011;56608;43.530;-5.652;2023-02-01T04:15:43;6.65;;;3.70;;
69414;SDS011;56608;43.530;-5.652;2023-02-01T04:16:46;6.47;;;3.72;;
69414;SDS011;56608;43.530;-5.652;2023-02-01T04:17:48;5.70;;;3.42;;
69414;SDS011;56608;43.530;-5.652;2023-02-01T04:18:49;5.10;;;3.83;;
69414;SDS011;56608;43.530;-5.652;2023-02-01T04:19:50;6.60;;;3.60;;
69414;SDS011;56608;43.530;-5.652;2023-02-01T04:20:52;6.12;;;3.60;;
69414;SDS011;56608;43.530;-5.652;2023-02-01T04:21:53;7.68;;;4.05;;
69414;SDS011;56608;43.530;-5.652;2023-02-01T04:22:54;5.90;;;3.60;;
69414;SDS011;56608;43.530;-5.652;2023-02-01T04:23:56;5.32;;;3.55;;
69414;SDS011;56608;43.530;-5.652;2023-02-01T04:24:57;6.47;;;3.47;;
69414;SDS011;56608;43.530;-5.652;2023-02-01T04:25:59;6.60;;;3.60;;
69414;SDS011;56608;43.530;-5.652;2023-02-01T04:27:02;6.37;;;3.62;;
69414;SDS011;56608;43.530;-5.652;2023-02-01T04:28:03;7.55;;;3.45;;
69414;SDS011;56608;43.530;-5.652;2023-02-01T04:29:05;6.85;;;3.83;;
69414;SDS011;56608;43.530;-5.652;2023-02-01T04:30:07;5.35;;;3.28;;
69414;SDS011;56608;43.530;-5.652;2023-02-01T04:31:12;4.43;;;2.87;;
69414;SDS011;56608;43.530;-5.652;2023-02-01T04:32:13;5.28;;;3.45;;
69414;SDS011;56608;43.530;-5.652;2023-02-01T04:33:16;6.53;;;3.90;;
69414;SDS011;56608;43.530;-5.652;2023-02-01T04:34:18;5.82;;;3.30;;
69414;SDS011;56608;43.530;-5.652;2023-02-01T04:35:19;9.05;;;3.83;;
69414;SDS011;56608;43.530;-5.652;2023-02-01T04:36:21;7.85;;;3.70;;
69414;SDS011;56608;43.530;-5.652;2023-02-01T04:37:23;6.47;;;3.42;;
69414;SDS011;56608;43.530;-5.652;2023-02-01T04:38:24;5.53;;;3.17;;
69414;SDS011;56608;43.530;-5.652;2023-02-01T04:39:26;5.90;;;3.75;;
69414;SDS011;56608;43.530;-5.652;2023-02-01T04:40:26;6.47;;;3.50;;
69414;SDS011;56608;43.530;-5.652;2023-02-01T04:41:28;5.95;;;3.78;;
69414;SDS011;56608;43.530;-5.652;2023-02-01T04:42:31;7.12;;;3.75;;
69414;SDS011;56608;43.530;-5.652;2023-02-01T04:43:31;7.20;;;3.70;;
69414;SDS011;56608;43.530;-5.652;2023-02-01T04:44:33;6.12;;;3.40;;
69414;SDS011;56608;43.530;-5.652;2023-02-01T04:45:34;6.28;;;3.45;;
69414;SDS011;56608;43.530;-5.652;2023-02-01T04:46:36;6.12;;;3.75;;
69414;SDS011;56608;43.530;-5.652;2023-02-01T04:47:36;7.70;;;4.03;;
69414;SDS011;56608;43.530;-5.652;2023-02-01T04:48:38;5.60;;;3.35;;
69414;SDS011;56608;43.530;-5.652;2023-02-01T04:49:39;4.80;;;3.15;;
69414;SDS011;56608;43.530;-5.652;2023-02-01T04:50:41;5.10;;;3.42;;
69414;SDS011;56608;43.530;-5.652;2023-02-01T04:51:42;6.65;;;3.87;;
69414;SDS011;56608;43.530;-5.652;2023-02-01T04:53:46;7.62;;;3.05;;
69414;SDS011;56608;43.530;-5.652;2023-02-01T04:54:47;4.65;;;3.55;;
69414;SDS011;56608;43.530;-5.652;2023-02-01T04:55:48;4.83;;;3.40;;
69414;SDS011;56608;43.530;-5.652;2023-02-01T04:56:50;9.13;;;3.55;;
69414;SDS011;56608;43.530;-5.652;2023-02-01T04:57:52;5.50;;;3.35;;
69414;SDS011;56608;43.530;-5.652;2023-02-01T04:58:53;5.40;;;3.50;;
69414;SDS011;56608;43.530;-5.652;2023-02-01T04:59:56;5.20;;;3.30;;
69414;SDS011;56608;43.530;-5.652;2023-02-01T05:00:57;5.85;;;3.67;;
69414;SDS011;56608;43.530;-5.652;2023-02-01T05:01:59;4.35;;;3.00;;
69414;SDS011;56608;43.530;-5.652;2023-02-01T05:03:00;6.60;;;3.42;;
69414;SDS011;56608;43.530;-5.652;2023-02-01T05:04:01;5.07;;;3.47;;
69414;SDS011;56608;43.530;-5.652;2023-02-01T05:05:03;7.75;;;3.65;;
69414;SDS011;56608;43.530;-5.652;2023-02-01T05:06:05;6.90;;;3.50;;
69414;SDS011;56608;43.530;-5.652;2023-02-01T05:07:06;5.28;;;3.20;;
69414;SDS011;56608;43.530;-5.652;2023-02-01T05:08:07;5.72;;;3.50;;
69414;SDS011;56608;43.530;-5.652;2023-02-01T05:09:09;6.07;;;3.28;;
69414;SDS011;56608;43.530;-5.652;2023-02-01T05:10:10;5.80;;;3.30;;
69414;SDS011;56608;43.530;-5.652;2023-02-01T05:11:11;6.23;;;3.43;;
69414;SDS011;56608;43.530;-5.652;2023-02-01T05:12:31;4.57;;;3.00;;
69414;SDS011;56608;43.530;-5.652;2023-02-01T05:13:51;4.82;;;3.22;;
69414;SDS011;56608;43.530;-5.652;2023-02-01T05:14:53;5.80;;;3.25;;
69414;SDS011;56608;43.530;-5.652;2023-02-01T05:15:54;5.57;;;3.53;;
69414;SDS011;56608;43.530;-5.652;2023-02-01T05:16:55;6.50;;;3.23;;
69414;SDS011;56608;43.530;-5.652;2023-02-01T05:17:57;5.95;;;3.10;;
69414;SDS011;56608;43.530;-5.652;2023-02-01T05:18:58;6.00;;;3.12;;
69414;SDS011;56608;43.530;-5.652;2023-02-01T05:19:59;6.20;;;3.22;;
69414;SDS011;56608;43.530;-5.652;2023-02-01T05:21:01;4.97;;;3.10;;
69414;SDS011;56608;43.530;-5.652;2023-02-01T05:22:02;5.72;;;3.67;;
69414;SDS011;56608;43.530;-5.652;2023-02-01T05:23:04;6.18;;;3.83;;
69414;SDS011;56608;43.530;-5.652;2023-02-01T05:24:07;6.75;;;3.08;;
69414;SDS011;56608;43.530;-5.652;2023-02-01T05:25:13;7.78;;;3.30;;
69414;SDS011;56608;43.530;-5.652;2023-02-01T05:26:15;7.15;;;3.22;;
69414;SDS011;56608;43.530;-5.652;2023-02-01T05:27:16;6.85;;;3.28;;
69414;SDS011;56608;43.530;-5.652;2023-02-01T05:28:18;5.60;;;3.45;;
69414;SDS011;56608;43.530;-5.652;2023-02-01T05:29:19;6.50;;;3.22;;
69414;SDS011;56608;43.530;-5.652;2023-02-01T05:30:19;6.40;;;3.80;;
69414;SDS011;56608;43.530;-5.652;2023-02-01T05:31:21;7.95;;;3.65;;
69414;SDS011;56608;43.530;-5.652;2023-02-01T05:32:23;7.75;;;3.80;;
69414;SDS011;56608;43.530;-5.652;2023-02-01T05:33:24;6.12;;;3.40;;
69414;SDS011;56608;43.530;-5.652;2023-02-01T05:34:25;6.62;;;3.42;;
69414;SDS011;56608;43.530;-5.652;2023-02-01T05:35:27;6.25;;;3.20;;
69414;SDS011;56608;43.530;-5.652;2023-02-01T05:36:27;6.70;;;3.40;;
69414;SDS011;56608;43.530;-5.652;2023-02-01T05:37:29;4.50;;;3.00;;
69414;SDS011;56608;43.530;-5.652;2023-02-01T05:38:31;6.15;;;3.70;;
69414;SDS011;56608;43.530;-5.652;2023-02-01T05:39:33;7.07;;;3.50;;
69414;SDS011;56608;43.530;-5.652;2023-02-01T05:40:33;6.30;;;3.10;;
69414;SDS011;56608;43.530;-5.652;2023-02-01T05:41:35;6.97;;;3.40;;
69414;SDS011;56608;43.530;-5.652;2023-02-01T05:42:37;5.12;;;3.10;;
69414;SDS011;56608;43.530;-5.652;2023-02-01T05:43:38;6.25;;;3.25;;
69414;SDS011;56608;43.530;-5.652;2023-02-01T05:44:40;6.45;;;3.12;;
69414;SDS011;56608;43.530;-5.652;2023-02-01T05:45:41;6.00;;;3.12;;
69414;SDS011;56608;43.530;-5.652;2023-02-01T05:46:43;4.50;;;2.80;;
69414;SDS011;56608;43.530;-5.652;2023-02-01T05:47:44;6.43;;;3.28;;
69414;SDS011;56608;43.530;-5.652;2023-02-01T05:48:45;7.65;;;3.20;;
69414;SDS011;56608;43.530;-5.652;2023-02-01T05:49:47;6.00;;;3.42;;
69414;SDS011;56608;43.530;-5.652;2023-02-01T05:50:48;8.07;;;4.30;;
69414;SDS011;56608;43.530;-5.652;2023-02-01T05:51:49;6.60;;;3.50;;
69414;SDS011;56608;43.530;-5.652;2023-02-01T05:52:51;5.70;;;3.40;;
69414;SDS011;56608;43.530;-5.652;2023-02-01T05:53:52;6.62;;;3.83;;
69414;SDS011;56608;43.530;-5.652;2023-02-01T05:54:53;6.18;;;4.00;;
69414;SDS011;56608;43.530;-5.652;2023-02-01T05:55:55;4.62;;;2.90;;
69414;SDS011;56608;43.530;-5.652;2023-02-01T05:56:56;5.00;;;3.40;;
69414;SDS011;56608;43.530;-5.652;2023-02-01T05:57:58;5.12;;;3.55;;
69414;SDS011;56608;43.530;-5.652;2023-02-01T05:58:59;5.95;;;3.53;;
69414;SDS011;56608;43.530;-5.652;2023-02-01T06:00:01;6.70;;;3.40;;
69414;SDS011;56608;43.530;-5.652;2023-02-01T06:01:03;5.68;;;3.30;;
69414;SDS011;56608;43.530;-5.652;2023-02-01T06:02:04;5.43;;;3.28;;
69414;SDS011;56608;43.530;-5.652;2023-02-01T06:03:07;7.68;;;3.80;;
69414;SDS011;56608;43.530;-5.652;2023-02-01T06:04:08;4.32;;;2.80;;
69414;SDS011;56608;43.530;-5.652;2023-02-01T06:05:09;4.90;;;3.37;;
69414;SDS011;56608;43.530;-5.652;2023-02-01T06:06:11;5.95;;;3.42;;
69414;SDS011;56608;43.530;-5.652;2023-02-01T06:07:12;6.45;;;3.62;;
69414;SDS011;56608;43.530;-5.652;2023-02-01T06:08:14;4.78;;;2.90;;
69414;SDS011;56608;43.530;-5.652;2023-02-01T06:10:17;6.62;;;3.35;;
69414;SDS011;56608;43.530;-5.652;2023-02-01T06:12:19;4.57;;;2.72;;
69414;SDS011;56608;43.530;-5.652;2023-02-01T06:13:21;5.65;;;3.12;;
69414;SDS011;56608;43.530;-5.652;2023-02-01T06:14:22;5.75;;;3.42;;
69414;SDS011;56608;43.530;-5.652;2023-02-01T06:15:25;6.85;;;3.50;;
69414;SDS011;56608;43.530;-5.652;2023-02-01T06:16:26;3.97;;;2.75;;
69414;SDS011;56608;43.530;-5.652;2023-02-01T06:17:28;5.50;;;2.83;;
69414;SDS011;56608;43.530;-5.652;2023-02-01T06:18:29;5.40;;;3.30;;
69414;SDS011;56608;43.530;-5.652;2023-02-01T06:19:31;5.72;;;3.10;;
69414;SDS011;56608;43.530;-5.652;2023-02-01T06:20:32;8.98;;;3.00;;
69414;SDS011;56608;43.530;-5.652;2023-02-01T06:21:35;5.10;;;2.75;;
69414;SDS011;56608;43.530;-5.652;2023-02-01T06:22:37;7.05;;;2.80;;
69414;SDS011;56608;43.530;-5.652;2023-02-01T06:23:39;4.35;;;2.60;;
69414;SDS011;56608;43.530;-5.652;2023-02-01T06:24:41;4.28;;;2.67;;
69414;SDS011;56608;43.530;-5.652;2023-02-01T06:25:42;7.80;;;3.15;;
69414;SDS011;56608;43.530;-5.652;2023-02-01T06:26:42;5.65;;;3.05;;
69414;SDS011;56608;43.530;-5.652;2023-02-01T06:27:44;5.70;;;3.40;;
69414;SDS011;56608;43.530;-5.652;2023-02-01T06:28:46;5.05;;;3.05;;
69414;SDS011;56608;43.530;-5.652;2023-02-01T06:29:46;3.80;;;2.47;;
69414;SDS011;56608;43.530;-5.652;2023-02-01T06:30:48;5.80;;;3.58;;
69414;SDS011;56608;43.530;-5.652;2023-02-01T06:31:49;4.10;;;2.60;;
69414;SDS011;56608;43.530;-5.652;2023-02-01T06:32:51;5.97;;;2.97;;
69414;SDS011;56608;43.530;-5.652;2023-02-01T06:33:56;4.50;;;2.45;;
69414;SDS011;56608;43.530;-5.652;2023-02-01T06:34:57;5.85;;;2.78;;
69414;SDS011;56608;43.530;-5.652;2023-02-01T06:35:59;4.60;;;2.90;;
69414;SDS011;56608;43.530;-5.652;2023-02-01T06:37:02;5.03;;;2.97;;
69414;SDS011;56608;43.530;-5.652;2023-02-01T06:38:04;5.12;;;2.60;;
69414;SDS011;56608;43.530;-5.652;2023-02-01T06:39:05;4.95;;;2.70;;
69414;SDS011;56608;43.530;-5.652;2023-02-01T06:40:06;6.03;;;3.17;;
69414;SDS011;56608;43.530;-5.652;2023-02-01T06:41:08;5.75;;;2.70;;
69414;SDS011;56608;43.530;-5.652;2023-02-01T06:42:10;5.78;;;2.53;;
69414;SDS011;56608;43.530;-5.652;2023-02-01T06:43:11;7.90;;;2.90;;
69414;SDS011;56608;43.530;-5.652;2023-02-01T06:44:13;5.47;;;2.80;;
69414;SDS011;56608;43.530;-5.652;2023-02-01T06:46:15;4.10;;;2.67;;
69414;SDS011;56608;43.530;-5.652;2023-02-01T06:47:17;5.25;;;2.90;;
69414;SDS011;56608;43.530;-5.652;2023-02-01T06:48:18;4.57;;;2.30;;
69414;SDS011;56608;43.530;-5.652;2023-02-01T06:50:21;4.43;;;2.50;;
69414;SDS011;56608;43.530;-5.652;2023-02-01T06:51:24;4.03;;;2.55;;
69414;SDS011;56608;43.530;-5.652;2023-02-01T06:52:26;4.15;;;2.78;;
69414;SDS011;56608;43.530;-5.652;2023-02-01T06:53:27;4.50;;;2.70;;
69414;SDS011;56608;43.530;-5.652;2023-02-01T06:54:29;4.03;;;2.45;;
69414;SDS011;56608;43.530;-5.652;2023-02-01T06:55:33;6.45;;;2.53;;
69414;SDS011;56608;43.530;-5.652;2023-02-01T06:56:34;4.68;;;2.60;;
69414;SDS011;56608;43.530;-5.652;2023-02-01T06:57:35;4.90;;;2.70;;
69414;SDS011;56608;43.530;-5.652;2023-02-01T06:58:37;5.68;;;2.95;;
69414;SDS011;56608;43.530;-5.652;2023-02-01T06:59:40;4.70;;;2.72;;
69414;SDS011;56608;43.530;-5.652;2023-02-01T07:00:41;4.35;;;2.40;;
69414;SDS011;56608;43.530;-5.652;2023-02-01T07:01:42;5.00;;;2.40;;
69414;SDS011;56608;43.530;-5.652;2023-02-01T07:02:44;3.53;;;2.17;;